• Join FlightAware (Why Join?)
  • Login
  • US Flag 
05:55PM EDT


 

Airport Tracker/Info


-or-


 

Live Flight TrackerFlight Track Log ✈ N589H ✈ 03-Jul-2014 ✈ KPIE - MDSD / SDQ

Flight Track Log - Related Links

Times and Time Zones

All times are in EDT time to prevent confusion due to time zone crossing. See the N589H flight status page for this flight to view local times or setup timezone preferences in your user account.

Time Position Orientation Groundspeed Altitude Reporting Facility
EDT Latitude Longitude Course Direction KTS MPH feet Rate Location/Type
01:49PM 27.9000 -82.6833 180° South 159 183 500  Level Tampa TRACON
01:49PM 27.8667 -82.6833 180° South 170 196 1,500 1,200 Climbing Tampa TRACON
01:50PM 27.8000 -82.7000 149° Southeast 222 255 2,500 1,500 Climbing Tampa TRACON
01:51PM 27.8150 -82.6322 149° Southeast  Level FlightAware Approximate
01:51PM 27.7500 -82.7000 180° South 228 262 4,500  Level Tampa TRACON
01:54PM 27.6239 -82.6244 152° Southeast 217 250 9,300 1,980 Climbing Miami Center
01:55PM 27.5692 -82.5922 152° Southeast 219 252 11,400 1,980 Climbing Miami Center
01:56PM 27.5133 -82.5597 153° Southeast 222 255 13,400 1,920 Climbing Miami Center
01:57PM 27.4583 -82.5242 150° Southeast 226 260 15,400 1,920 Climbing Miami Center
01:58PM 27.4058 -82.4875 148° Southeast 226 260 17,400 1,380 Climbing Miami Center
02:01PM 27.2189 -82.3719 117° Southeast 268 308 21,300 1,200 Climbing Miami Center
02:02PM 27.1461 -82.3322 154° Southeast 286 329 22,400 1,020 Climbing Miami Center
02:04PM 27.0094 -82.2039 116° Southeast 303 349 24,600 1,020 Climbing Miami Center
02:05PM 26.9761 -82.1161 113° Southeast 310 357 25,700 960 Climbing Miami Center
02:06PM 26.9378 -82.0306 117° Southeast 309 356 26,700 960 Climbing Miami Center
02:07PM 26.8962 -81.8149 117° Southeast  Level FlightAware Approximate
02:07PM 26.9006 -81.9469 117° Southeast 304 350 27,800  Level Miami Center
02:11PM 26.7411 -81.6022 116° Southeast 299 344 31,200 720 Climbing Miami Center
02:12PM 26.7006 -81.5139 117° Southeast 303 349 31,800 480 Climbing Miami Center
02:13PM 26.6614 -81.4317 118° Southeast 311 358 32,300 480 Climbing Miami Center
02:14PM 26.6197 -81.3417 117° Southeast 311 358 32,800 480 Climbing Miami Center
02:16PM 26.5430 -81.2172 116° Southeast  Level FlightAware Approximate
02:17PM 26.5037 -81.1265 116° Southeast  Level FlightAware Approximate
02:17PM 26.5358 -81.1625 118° Southeast 311 358 33,900  Level Miami Center
02:19PM 26.4525 -80.9844 118° Southeast 308 354 34,900 240 Climbing Miami Center
02:21PM 26.3692 -80.8086 118° Southeast 324 373 34,900  Level Miami Center
02:22PM 26.3225 -80.7108 118° Southeast 329 379 34,900  Level Miami Center
02:23PM 26.2783 -80.6181 118° Southeast 337 388 34,900  Level Miami Center
02:27PM 26.0914 -80.2264 118° Southeast 353 406 34,900  Level Miami Center
02:29PM 25.9989 -80.0342 119° Southeast 351 404 34,900  Level Miami Center
02:31PM 25.9069 -79.8442 118° Southeast 347 399 34,900  Level Miami Center
02:32PM 25.9039 -79.8456 118° Southeast  Level FlightAware Approximate
02:32PM 25.8608 -79.7486 118° Southeast 350 403 34,900  Level Miami Center
02:33PM 25.8050 -79.6328 118° Southeast 351 404 34,900  Level Miami Center
02:35PM 25.7117 -79.4422 118° Southeast 352 405 34,900  Level Miami Center
02:37PM 25.6194 -79.2508 118° Southeast 352 405 34,900  Level Miami Center
02:39PM 25.5158 -79.0411 119° Southeast 354 407 34,900  Level Miami Center
02:41PM 25.4197 -78.8436 118° Southeast 352 405 34,900  Level Miami Center
02:42PM 25.3711 -78.7492 120° Southeast 351 404 34,900  Level Miami Center
02:43PM 25.3258 -78.6553 118° Southeast 349 402 34,900  Level Miami Center
02:45PM 25.2747 -78.5503 118° Southeast 350 403 34,900  Level Miami Center
02:46PM 25.2267 -78.4561 119° Southeast 350 403 34,900  Level Miami Center
02:47PM 25.1789 -78.3622 119° Southeast 350 403 34,900  Level Miami Center
02:48PM 25.1256 -78.2594 120° Southeast 350 403 34,900  Level Miami Center
02:49PM 25.0806 -78.1633 117° Southeast 351 404 34,900  Level Miami Center
02:50PM 25.0458 -78.0617 111° Southeast 352 405 34,900  Level Miami Center
02:51PM 25.0106 -77.9511 109° East 352 405 34,900  Level Miami Center
02:52PM 24.9739 -77.8522 112° Southeast 351 404 34,900  Level Miami Center
02:53PM 24.9372 -77.7531 112° Southeast 349 402 34,900  Level Miami Center
02:54PM 24.8964 -77.6453 113° Southeast 349 402 34,900  Level Miami Center
02:55PM 24.8589 -77.5469 113° Southeast 349 402 34,900  Level Miami Center
02:56PM 24.8125 -77.4553 119° Southeast 348 400 34,900  Level Miami Center
02:57PM 24.7517 -77.3600 125° Southeast 348 400 34,900  Level Miami Center
02:58PM 24.6958 -77.2719 125° Southeast 348 400 34,900  Level Miami Center
02:59PM 24.6414 -77.1842 124° Southeast 348 400 34,900  Level Miami Center
03:03PM 24.4108 -76.8150 123° Southeast 349 402 34,900  Level Miami Center
03:04PM 24.3550 -76.7267 125° Southeast 349 402 34,900  Level Miami Center
03:05PM 24.2992 -76.6397 125° Southeast 349 402 34,900  Level Miami Center
03:06PM 24.2428 -76.5478 124° Southeast 350 403 34,900  Level Miami Center
03:09PM 24.0758 -76.2839 131° Southeast 351 404 34,900  Level Miami Center
03:10PM 24.0083 -76.1786 125° Southeast 351 404 34,900  Level Miami Center
03:11PM 23.9525 -76.0903 125° Southeast 351 404 34,900  Level Miami Center
03:12PM 23.8978 -76.0008 124° Southeast 351 404 34,900  Level Miami Center
03:13PM 23.8419 -75.9125 125° Southeast 352 405 34,900  Level Miami Center
03:17PM 23.6736 -75.6469 105° East 352 405 34,900  Level Miami Center
03:18PM 23.6158 -75.5583 125° Southeast 352 405 34,900  Level Miami Center
03:20PM 23.4900 -75.3656 125° Southeast 352 405 34,900  Level Miami Center
03:22PM 23.3767 -75.1892 125° Southeast 352 405 34,900  Level Miami Center
03:23PM 23.3197 -75.1011 125° Southeast 352 405 34,900  Level Miami Center
03:25PM 23.2053 -74.9256 125° Southeast 354 407 34,900  Level Miami Center
03:26PM 23.1361 -74.8214 126° Southeast 354 407 34,900  Level Miami Center
03:27PM 23.0781 -74.7328 125° Southeast 355 409 34,900  Level Miami Center
03:28PM 23.0214 -74.6447 125° Southeast 355 409 34,900  Level Miami Center
03:30PM 22.9078 -74.4692 134° Southeast 355 409 34,900  Level Miami Center
03:31PM 22.8494 -74.3803 125° Southeast 356 410 34,900  Level Miami Center
03:33PM 22.7225 -74.1861 134° Southeast 358 412 34,900  Level Miami Center
03:34PM 22.6639 -74.0986 126° Southeast 358 412 34,900  Level Miami Center
03:35PM 22.6058 -74.0103 125° Southeast 358 412 34,900  Level Miami Center
03:36PM 22.5481 -73.9208 125° Southeast 359 413 34,900  Level Miami Center
03:37PM 22.4892 -73.8342 126° Southeast 359 413 34,900  Level Miami Center
03:39PM 22.3608 -73.6394 135° Southeast 359 413 34,900  Level Miami Center
03:40PM 22.3017 -73.5517 126° Southeast 360 414 34,900  Level Miami Center
03:41PM 22.2447 -73.4633 125° Southeast 359 413 34,900  Level Miami Center
03:42PM 22.1853 -73.3769 127° Southeast 360 414 34,900  Level Miami Center
03:43PM 22.1272 -73.2889 125° Southeast 362 417 34,900  Level Miami Center
03:44PM 22.0578 -73.1842 126° Southeast 360 414 34,900  Level Miami Center
03:48PM 21.8817 -72.9236 137° Southeast 358 412 34,900 -240 Level Miami Center
03:51PM 21.7064 -72.6619 138° Southeast 366 421 33,600 -480 Descending Miami Center
03:52PM 21.6328 -72.5514 126° Southeast 377 434 33,000 -360 Descending Miami Center
03:53PM 21.5253 -72.6532 137° Southeast  Level Estimated
03:53PM 21.5728 -72.4631 126° Southeast 373 429 32,900  Level Miami Center
03:54PM 21.5139 -72.3781 127° Southeast 361 415 32,900  Level Miami Center
03:55PM 21.4561 -72.2933 126° Southeast 357 411 32,900  Level Miami Center
03:57PM 21.3417 -72.1247 126° Southeast 353 406 32,900  Level Miami Center
03:59PM 21.2136 -71.9411 127° Southeast 351 404 32,900  Level Miami Center
04:00PM 21.1553 -71.8564 126° Southeast 352 405 32,900  Level Miami Center
04:01PM 21.0958 -71.7725 127° Southeast 352 405 32,900  Level Miami Center
04:02PM 21.0378 -71.6867 126° Southeast 352 405 32,900  Level Miami Center
04:05PM 20.8492 -71.4133 142° Southeast 356 410 32,900  Level Miami Center
04:06PM 20.7900 -71.3286 127° Southeast 356 410 32,900  Level Miami Center
04:08PM 20.6725 -71.1594 152° Southeast 356 410 32,900  Level Miami Center
04:10PM 20.5428 -70.9722 145° Southeast 356 410 32,900  Level Miami Center
04:11PM 20.4561 -71.1491 142° Southeast  Level FlightAware Approximate
04:11PM 20.4839 -70.8881 127° Southeast 356 410 32,900  Level Miami Center
04:13PM 20.3883 -70.8305 163° South  Level Estimated
04:17PM 20.0292 -70.7712 145° Southeast  Level Estimated
04:20PM 19.8380 -70.5008 163° South  Level Estimated
04:21PM 19.7593 -70.4539 145° Southeast  Level Estimated
04:22PM 19.6694 -70.4620 185° South  Level FlightAware Approximate
04:23PM 19.5923 -70.4122 148° Southeast  Level Estimated
04:24PM 19.5107 -70.3716 155° Southeast  Level FlightAware Approximate
04:25PM 19.4290 -70.3310 155° Southeast  Level FlightAware Approximate
04:26PM 19.3526 -70.2801 145° Southeast  Level Estimated
04:27PM 19.2764 -70.2290 148° Southeast  Level FlightAware Approximate
04:28PM 19.2001 -70.1780 148° Southeast  Level FlightAware Approximate
04:29PM 19.1237 -70.1272 148° Southeast  Level Estimated
04:30PM 19.0464 -70.0780 149° Southeast  Level FlightAware Approximate
04:31PM 18.9701 -70.0272 146° Southeast  Level Estimated
04:32PM 18.8943 -69.9755 147° Southeast  Level FlightAware Approximate
04:33PM 18.8185 -69.9239 147° Southeast  Level FlightAware Approximate
04:34PM 18.7419 -69.8736 148° Southeast  Level Estimated
04:35PM 18.6653 -69.8233 148° Southeast  Level Estimated
04:36PM 18.5886 -69.7730 145° Southeast  Level Estimated
04:37PM 18.5120 -69.7228 150° Southeast  Level Estimated
04:38PM 18.4390 -69.6670 144° Southeast  Level FlightAware Approximate
04:39PM 18.4297 -69.6689 144° Southeast  Level Estimated
04:40PM 18.4297 -69.6689 126° Southeast  Level Estimated
04:41PM 18.4297 -69.6689 126° Southeast  Level Estimated
04:42PM 18.4297 -69.6689 126° Southeast  Level Estimated
04:43PM 18.4297 -69.6689 126° Southeast  Level Estimated
04:44PM 18.4297 -69.6689 126° Southeast  Level Estimated
04:45PM 18.4297 -69.6689 126° Southeast  Level Estimated
04:46PM 18.4297 -69.6689 126° Southeast  Level Estimated
04:47PM 18.4297 -69.6689 126° Southeast  Level Estimated